createdAt,value
2022-11-27T00:00:47.076Z,3.20
2022-11-27T00:04:48.953Z,3.10
2022-11-27T00:08:52.091Z,3.10
2022-11-27T00:12:54.030Z,3.10
2022-11-27T00:16:56.017Z,3.00
2022-11-27T00:21:47.711Z,3.00
2022-11-27T00:26:37.476Z,3.00
2022-11-27T00:30:40.349Z,3.10
2022-11-27T00:34:42.601Z,3.10
2022-11-27T00:39:59.813Z,3.00
2022-11-27T00:44:02.828Z,3.00
2022-11-27T00:48:05.969Z,3.00
2022-11-27T00:52:09.525Z,2.90
2022-11-27T00:56:41.534Z,2.80
2022-11-27T01:00:43.453Z,2.70
2022-11-27T01:04:46.964Z,2.60
2022-11-27T01:08:49.531Z,2.40
2022-11-27T01:12:51.428Z,2.40
2022-11-27T01:16:53.469Z,2.30
2022-11-27T01:21:16.829Z,2.30
2022-11-27T01:25:20.907Z,2.30
2022-11-27T01:29:25.166Z,2.20
2022-11-27T01:34:16.883Z,2.20
2022-11-27T01:38:18.687Z,2.20
2022-11-27T01:42:20.555Z,2.10
2022-11-27T01:46:39.672Z,2.10
2022-11-27T01:50:42.050Z,2.00
2022-11-27T01:54:55.984Z,2.00
2022-11-27T02:04:46.428Z,2.00
2022-11-27T02:09:16.562Z,1.90
2022-11-27T02:14:00.858Z,1.90
2022-11-27T02:18:24.971Z,1.80
2022-11-27T02:22:38.944Z,1.80
2022-11-27T02:26:59.526Z,1.90
2022-11-27T02:31:19.055Z,1.80
2022-11-27T02:35:38.965Z,1.80
2022-11-27T02:40:23.142Z,1.70
2022-11-27T02:44:33.765Z,1.60
2022-11-27T02:48:53.758Z,1.60
2022-11-27T02:53:00.995Z,1.60
2022-11-27T02:57:17.040Z,1.60
2022-11-27T03:06:00.270Z,1.60
2022-11-27T03:10:13.257Z,1.60
2022-11-27T03:14:17.218Z,1.60
2022-11-27T03:18:30.118Z,1.60
2022-11-27T03:22:37.380Z,1.50
2022-11-27T03:26:41.191Z,1.50
2022-11-27T03:31:08.330Z,1.50
2022-11-27T03:35:18.913Z,1.50
2022-11-27T03:39:45.983Z,1.40
2022-11-27T03:44:12.863Z,1.40
2022-11-27T03:48:35.436Z,1.30
2022-11-27T03:52:49.359Z,1.30
2022-11-27T03:57:20.471Z,1.30
2022-11-27T04:01:31.741Z,1.30
2022-11-27T04:05:33.834Z,1.40
2022-11-27T04:09:35.718Z,1.40
2022-11-27T04:14:03.075Z,1.40
2022-11-27T04:18:34.281Z,1.40
2022-11-27T04:23:05.141Z,1.50
2022-11-27T04:27:06.985Z,1.50
2022-11-27T04:31:09.936Z,1.50
2022-11-27T04:35:31.827Z,1.50
2022-11-27T04:40:00.084Z,1.40
2022-11-27T04:44:13.130Z,1.40
2022-11-27T04:48:40.250Z,1.30
2022-11-27T04:52:48.380Z,1.30
2022-11-27T04:56:50.253Z,1.40
2022-11-27T05:00:58.517Z,1.40
2022-11-27T05:05:00.626Z,1.40
2022-11-27T05:09:02.851Z,1.50
2022-11-27T05:13:04.906Z,1.50
2022-11-27T05:17:07.052Z,1.60
2022-11-27T05:21:09.117Z,1.60
2022-11-27T05:25:11.241Z,1.60
2022-11-27T05:29:14.452Z,1.60
2022-11-27T05:33:17.948Z,1.60
2022-11-27T05:37:20.207Z,1.70
2022-11-27T05:41:22.630Z,1.60
2022-11-27T05:45:24.495Z,1.60
2022-11-27T05:49:35.723Z,1.60
2022-11-27T05:53:37.614Z,1.50
2022-11-27T05:57:39.445Z,1.50
2022-11-27T06:01:43.236Z,1.40
2022-11-27T06:05:45.141Z,1.30
2022-11-27T06:09:47.046Z,1.30
2022-11-27T06:14:00.093Z,1.20
2022-11-27T06:18:26.812Z,1.10
2022-11-27T06:22:47.620Z,1.10
2022-11-27T06:26:49.528Z,1.00
2022-11-27T06:31:17.262Z,0.90
2022-11-27T06:36:16.045Z,0.80
2022-11-27T06:40:19.212Z,0.80
2022-11-27T06:44:23.346Z,0.80
2022-11-27T06:48:25.721Z,0.80
2022-11-27T06:52:52.477Z,0.80
2022-11-27T06:56:54.368Z,0.90
2022-11-27T07:01:00.369Z,1.00
2022-11-27T07:05:03.680Z,1.10
2022-11-27T07:09:06.817Z,1.10
2022-11-27T07:13:35.235Z,1.30
2022-11-27T07:17:38.173Z,1.40
2022-11-27T07:27:40.025Z,1.60
2022-11-27T07:31:42.100Z,1.70
2022-11-27T07:35:50.291Z,1.90
2022-11-27T07:40:02.590Z,2.00
2022-11-27T07:44:32.156Z,2.10
2022-11-27T07:48:43.575Z,2.30
2022-11-27T07:52:45.568Z,2.40
2022-11-27T07:56:48.717Z,2.60
2022-11-27T08:00:50.646Z,2.70
2022-11-27T08:04:58.791Z,2.90
2022-11-27T08:09:00.925Z,3.00
2022-11-27T08:13:05.436Z,3.10
2022-11-27T08:17:07.357Z,3.10
2022-11-27T08:21:09.280Z,3.20
2022-11-27T08:25:13.989Z,3.30
2022-11-27T08:29:22.188Z,3.40
2022-11-27T08:34:25.951Z,3.60
2022-11-27T08:38:31.465Z,3.70
2022-11-27T08:42:37.600Z,3.80
2022-11-27T08:46:39.764Z,3.90
2022-11-27T08:50:41.717Z,4.00
2022-11-27T08:54:51.924Z,4.10
2022-11-27T08:58:57.338Z,4.20
2022-11-27T09:03:03.693Z,4.30
2022-11-27T09:07:05.776Z,4.40
2022-11-27T09:11:36.161Z,4.40
2022-11-27T09:15:38.139Z,4.50
2022-11-27T09:19:40.202Z,4.60
2022-11-27T09:23:44.899Z,4.60
2022-11-27T09:27:46.881Z,4.70
2022-11-27T09:31:56.993Z,4.70
2022-11-27T09:35:58.922Z,4.80
2022-11-27T09:40:17.801Z,4.80
2022-11-27T09:45:09.598Z,4.80
2022-11-27T09:49:34.910Z,4.90
2022-11-27T09:53:52.692Z,4.90
2022-11-27T09:58:07.393Z,4.90
2022-11-27T10:02:32.090Z,4.90
2022-11-27T10:07:09.150Z,5.00
2022-11-27T10:11:48.020Z,5.00
2022-11-27T10:16:16.260Z,5.10
2022-11-27T10:21:10.602Z,5.10
2022-11-27T10:25:23.402Z,5.20
2022-11-27T10:30:19.569Z,5.30
2022-11-27T10:34:53.037Z,5.40
2022-11-27T10:38:59.438Z,5.50
2022-11-27T10:43:20.078Z,5.50
2022-11-27T10:47:33.900Z,5.70
2022-11-27T10:52:42.125Z,5.70
2022-11-27T10:56:46.340Z,5.80
2022-11-27T11:00:48.720Z,5.90
2022-11-27T11:05:09.223Z,6.00
2022-11-27T11:09:23.031Z,5.90
2022-11-27T11:13:52.989Z,5.90
2022-11-27T11:17:55.014Z,6.00
2022-11-27T11:21:58.678Z,6.10
2022-11-27T11:26:47.834Z,6.30
2022-11-27T11:31:00.083Z,6.50
2022-11-27T11:35:25.056Z,6.50
2022-11-27T11:40:27.014Z,6.60
2022-11-27T11:45:02.947Z,6.60
2022-11-27T11:49:18.468Z,6.60
2022-11-27T11:54:05.049Z,6.40
2022-11-27T11:59:09.479Z,6.50
2022-11-27T12:03:56.688Z,6.70
2022-11-27T12:08:29.135Z,6.90
2022-11-27T12:13:14.211Z,6.90
2022-11-27T12:17:36.146Z,6.80
2022-11-27T12:22:26.950Z,6.80
2022-11-27T12:27:34.035Z,6.80
2022-11-27T12:32:40.382Z,6.70
2022-11-27T12:37:13.742Z,6.70
2022-11-27T12:41:48.284Z,6.80
2022-11-27T12:45:54.714Z,6.70
2022-11-27T12:50:23.987Z,6.70
2022-11-27T12:54:32.731Z,6.60
2022-11-27T12:58:45.526Z,6.60
2022-11-27T13:02:58.624Z,6.70
2022-11-27T13:07:24.901Z,6.70
2022-11-27T13:11:32.684Z,6.80
2022-11-27T13:16:19.010Z,6.60
2022-11-27T13:26:33.174Z,6.60
2022-11-27T13:31:25.487Z,6.50
2022-11-27T13:35:43.902Z,6.40
2022-11-27T13:40:00.415Z,6.20
2022-11-27T13:44:28.753Z,6.20
2022-11-27T13:48:35.307Z,6.20
2022-11-27T13:52:38.747Z,6.10
2022-11-27T13:56:41.343Z,5.90
2022-11-27T14:00:45.405Z,5.70
2022-11-27T14:04:56.462Z,5.30
2022-11-27T14:09:20.241Z,5.00
2022-11-27T14:13:27.431Z,4.70
2022-11-27T14:18:15.600Z,4.60
2022-11-27T14:22:48.488Z,4.50
2022-11-27T14:26:57.081Z,4.20
2022-11-27T14:31:33.185Z,4.20
2022-11-27T14:35:35.430Z,3.90
2022-11-27T14:39:38.062Z,3.70
2022-11-27T14:43:40.201Z,3.60
2022-11-27T14:47:51.638Z,3.40
2022-11-27T14:51:57.378Z,3.20
2022-11-27T14:55:59.645Z,3.20
2022-11-27T15:00:15.269Z,3.00
2022-11-27T15:04:29.296Z,2.80
2022-11-27T15:08:35.876Z,2.70
2022-11-27T15:12:48.226Z,2.60
2022-11-27T15:16:52.715Z,2.40
2022-11-27T15:20:55.760Z,2.30
2022-11-27T15:25:02.580Z,2.20
2022-11-27T15:29:04.557Z,2.10
2022-11-27T15:33:34.124Z,2.00
2022-11-27T15:37:39.404Z,1.90
2022-11-27T15:42:09.198Z,1.80
2022-11-27T15:46:15.918Z,1.80
2022-11-27T15:50:19.273Z,1.80
2022-11-27T15:54:45.111Z,1.80
2022-11-27T15:59:37.415Z,1.80
2022-11-27T16:04:46.885Z,1.70
2022-11-27T16:09:16.821Z,1.50
2022-11-27T16:13:24.725Z,1.40
2022-11-27T16:17:27.821Z,1.40
2022-11-27T16:21:30.334Z,1.40
2022-11-27T16:26:23.583Z,1.40
2022-11-27T16:30:54.226Z,1.30
2022-11-27T16:34:56.136Z,1.30
2022-11-27T16:38:58.508Z,1.30
2022-11-27T16:43:11.180Z,1.20
2022-11-27T16:47:16.557Z,1.20
2022-11-27T16:51:43.155Z,1.20
2022-11-27T16:55:46.213Z,1.20
2022-11-27T17:00:21.442Z,1.10
2022-11-27T17:04:23.351Z,1.10
2022-11-27T17:08:30.576Z,1.00
2022-11-27T17:12:33.830Z,1.00
2022-11-27T17:16:47.733Z,0.90
2022-11-27T17:20:49.962Z,0.90
2022-11-27T17:30:45.788Z,0.90
2022-11-27T17:34:48.781Z,0.80
2022-11-27T17:39:12.728Z,0.80
2022-11-27T17:44:05.631Z,0.80
2022-11-27T17:48:08.054Z,0.70
2022-11-27T17:52:27.922Z,0.70
2022-11-27T17:56:33.464Z,0.70
2022-11-27T18:00:37.293Z,0.60
2022-11-27T18:04:39.260Z,0.60
2022-11-27T18:08:42.705Z,0.60
2022-11-27T18:13:39.984Z,0.50
2022-11-27T18:17:43.827Z,0.50
2022-11-27T18:22:05.091Z,0.40
2022-11-27T18:26:16.070Z,0.40
2022-11-27T18:30:18.149Z,0.40
2022-11-27T18:34:20.099Z,0.30
2022-11-27T18:38:23.225Z,0.30
2022-11-27T18:42:26.997Z,0.30
2022-11-27T18:46:29.311Z,0.30
2022-11-27T18:50:34.705Z,0.20
2022-11-27T18:54:42.613Z,0.10
2022-11-27T18:59:54.976Z,0.10
2022-11-27T19:04:00.095Z,0.10
2022-11-27T19:08:08.822Z,0.10
2022-11-27T19:12:12.306Z,0.10
2022-11-27T19:16:34.121Z,0.00
2022-11-27T19:21:01.915Z,0.00
2022-11-27T19:25:05.595Z,0.00
2022-11-27T19:29:10.113Z,0.00
2022-11-27T19:33:12.894Z,0.00
2022-11-27T19:43:13.811Z,-0.10
2022-11-27T19:47:59.652Z,-0.10
2022-11-27T19:52:26.913Z,-0.20
2022-11-27T19:56:32.430Z,-0.20
2022-11-27T20:00:34.806Z,-0.20
2022-11-27T20:05:07.274Z,-0.30
2022-11-27T20:09:14.095Z,-0.30
2022-11-27T20:13:41.405Z,-0.30
2022-11-27T20:23:51.444Z,-0.20
2022-11-27T20:27:53.430Z,-0.20
2022-11-27T20:32:22.786Z,-0.30
2022-11-27T20:36:25.482Z,-0.30
2022-11-27T20:40:28.528Z,-0.30
2022-11-27T20:44:56.771Z,-0.40
2022-11-27T20:48:59.350Z,-0.30
2022-11-27T20:53:04.347Z,-0.40
2022-11-27T20:57:08.346Z,-0.40
2022-11-27T21:01:20.977Z,-0.50
2022-11-27T21:05:23.302Z,-0.60
2022-11-27T21:09:26.994Z,-0.60
2022-11-27T21:19:08.117Z,-0.50
2022-11-27T21:23:10.104Z,-0.50
2022-11-27T21:27:16.273Z,-0.50
2022-11-27T21:31:24.986Z,-0.40
2022-11-27T21:35:36.713Z,-0.30
2022-11-27T21:39:41.446Z,-0.20
2022-11-27T21:43:49.186Z,-0.20
2022-11-27T21:47:51.744Z,-0.20
2022-11-27T21:52:01.187Z,-0.10
2022-11-27T21:56:10.316Z,0.00
2022-11-27T22:00:13.600Z,0.00
2022-11-27T22:10:15.026Z,0.00
2022-11-27T22:14:17.453Z,0.00
2022-11-27T22:18:19.402Z,0.00
2022-11-27T22:22:47.909Z,0.00
2022-11-27T22:27:13.911Z,0.00
2022-11-27T22:31:43.650Z,0.00
2022-11-27T22:36:24.420Z,-0.10
2022-11-27T22:40:26.520Z,-0.10
2022-11-27T22:44:28.536Z,-0.30
2022-11-27T22:48:30.542Z,-0.40
2022-11-27T22:52:32.503Z,-0.60
2022-11-27T22:56:59.691Z,-0.60
2022-11-27T23:01:25.176Z,-0.60
2022-11-27T23:05:27.672Z,-0.60
2022-11-27T23:09:30.887Z,-0.60
2022-11-27T23:13:59.685Z,-0.60
2022-11-27T23:18:15.053Z,-0.50
2022-11-27T23:22:16.935Z,-0.60
2022-11-27T23:32:12.667Z,-0.50
2022-11-27T23:36:14.976Z,-0.40
2022-11-27T23:40:17.306Z,-0.30
2022-11-27T23:44:21.755Z,-0.40
2022-11-27T23:48:25.730Z,-0.30
2022-11-27T23:52:31.924Z,-0.10
2022-11-27T23:56:44.293Z,-0.40
